Map

Track Data

SID SEASON NUMBER BASIN SUBBASIN NAME ISO_TIME NATURE LAT LON WMO_WIND WMO_PRES WMO_AGENCY TRACK_TYPE DIST2LAND LANDFALL IFLAG USA_AGENCY USA_ATCF_ID USA_LAT USA_LON USA_RECORD USA_STATUS USA_WIND USA_PRES USA_SSHS USA_R34_NE USA_R34_SE USA_R34_SW USA_R34_NW USA_R50_NE USA_R50_SE USA_R50_SW USA_R50_NW USA_R64_NE USA_R64_SE USA_R64_SW USA_R64_NW USA_POCI USA_ROCI USA_RMW USA_EYE TOKYO_LAT TOKYO_LON TOKYO_GRADE TOKYO_WIND TOKYO_PRES TOKYO_R50_DIR TOKYO_R50_LONG TOKYO_R50_SHORT TOKYO_R30_DIR TOKYO_R30_LONG TOKYO_R30_SHORT TOKYO_LAND CMA_LAT CMA_LON CMA_CAT CMA_WIND CMA_PRES HKO_LAT HKO_LON HKO_CAT HKO_WIND HKO_PRES NEWDELHI_LAT NEWDELHI_LON NEWDELHI_GRADE NEWDELHI_WIND NEWDELHI_PRES NEWDELHI_CI NEWDELHI_DP NEWDELHI_POCI REUNION_LAT REUNION_LON REUNION_TYPE REUNION_WIND REUNION_PRES REUNION_TNUM REUNION_CI REUNION_RMW REUNION_R34_NE REUNION_R34_SE REUNION_R34_SW REUNION_R34_NW REUNION_R50_NE REUNION_R50_SE REUNION_R50_SW REUNION_R50_NW REUNION_R64_NE REUNION_R64_SE REUNION_R64_SW REUNION_R64_NW BOM_LAT BOM_LON BOM_TYPE BOM_WIND BOM_PRES BOM_TNUM BOM_CI BOM_RMW BOM_R34_NE BOM_R34_SE BOM_R34_SW BOM_R34_NW BOM_R50_NE BOM_R50_SE BOM_R50_SW BOM_R50_NW BOM_R64_NE BOM_R64_SE BOM_R64_SW BOM_R64_NW BOM_ROCI BOM_POCI BOM_EYE BOM_POS_METHOD BOM_PRES_METHOD NADI_LAT NADI_LON NADI_CAT NADI_WIND NADI_PRES WELLINGTON_LAT WELLINGTON_LON WELLINGTON_WIND WELLINGTON_PRES DS824_LAT DS824_LON DS824_STAGE DS824_WIND DS824_PRES TD9636_LAT TD9636_LON TD9636_STAGE TD9636_WIND TD9636_PRES TD9635_LAT TD9635_LON TD9635_WIND TD9635_PRES TD9635_ROCI NEUMANN_LAT NEUMANN_LON NEUMANN_CLASS NEUMANN_WIND NEUMANN_PRES MLC_LAT MLC_LON MLC_CLASS MLC_WIND MLC_PRES USA_GUST BOM_GUST BOM_GUST_PER REUNION_GUST REUNION_GUST_PER USA_SEAHGT USA_SEARAD_NE USA_SEARAD_SE USA_SEARAD_SW USA_SEARAD_NW STORM_SPEED STORM_DIR
1967223N13347 1967 70 NA NA NOT_NAMED 1967-08-10 12:00:00 TS 12.9000 -13.0000 hurdat_atl main 0 0 O_____________ hurdat_atl AL081967 12.9000 -13.0000 TD -1 9 276
1967223N13347 1967 70 NA NA NOT_NAMED 1967-08-10 15:00:00 TS 12.9474 -13.4375 main 0 0 P_____________ AL081967 12.9474 -13.4375 TD -1 10 276
1967223N13347 1967 70 NA NA NOT_NAMED 1967-08-10 18:00:00 TS 13.0000 -14.0000 hurdat_atl main 0 0 O_____________ hurdat_atl AL081967 13.0000 -14.0000 TD -1 13 275
1967223N13347 1967 70 NA NA NOT_NAMED 1967-08-10 21:00:00 TS 13.0577 -14.7625 main 0 0 P_____________ AL081967 13.0577 -14.7625 TD -1 16 274
1967223N13347 1967 70 NA NA NOT_NAMED 1967-08-11 00:00:00 TS 13.1000 -15.6000 hurdat_atl main 0 0 O_____________ hurdat_atl AL081967 13.1000 -15.6000 TD -1 15 272
1967223N13347 1967 70 NA NA NOT_NAMED 1967-08-11 03:00:00 TS 13.1145 -16.3350 main 0 0 P_____________ AL081967 13.1145 -16.3350 TD -1 15 270
1967223N13347 1967 70 NA NA NOT_NAMED 1967-08-11 06:00:00 TS 13.1000 -17.1000 hurdat_atl main 39 39 O_____________ hurdat_atl AL081967 13.1000 -17.1000 TD -1 17 268
1967223N13347 1967 70 NA NA NOT_NAMED 1967-08-11 09:00:00 TS 13.0504 -18.0376 main 131 131 P_____________ AL081967 13.0504 -18.0376 TD -1 18 267
1967223N13347 1967 70 NA NA NOT_NAMED 1967-08-11 12:00:00 TS 13.0000 -18.9000 hurdat_atl main 229 229 O_____________ hurdat_atl AL081967 13.0000 -18.9000 TD -1 14 268
1967223N13347 1967 70 NA NA NOT_NAMED 1967-08-11 15:00:00 TS 12.9920 -19.4674 main 287 287 P_____________ AL081967 12.9920 -19.4674 TD -1 10 270
1967223N13347 1967 70 NA NA NOT_NAMED 1967-08-11 18:00:00 TS 13.0000 -19.9000 hurdat_atl main 321 321 O_____________ hurdat_atl AL081967 13.0000 -19.9000 TD -1 9 271
1967223N13347 1967 70 NA NA NOT_NAMED 1967-08-11 21:00:00 TS 13.0000 -20.3725 main 366 366 P_____________ AL081967 13.0000 -20.3725 TD -1 9 270
1967223N13347 1967 70 NA NA NOT_NAMED 1967-08-12 00:00:00 TS 13.0000 -20.8000 hurdat_atl main 404 404 O_____________ hurdat_atl AL081967 13.0000 -20.8000 TD -1 8 270
1967223N13347 1967 70 NA NA NOT_NAMED 1967-08-12 03:00:00 TS 12.9998 -21.1500 main 432 432 P_____________ AL081967 12.9998 -21.1500 TD -1 7 270
1967223N13347 1967 70 NA NA NOT_NAMED 1967-08-12 06:00:00 TS 13.0000 -21.5000 hurdat_atl main 472 472 O_____________ hurdat_atl AL081967 13.0000 -21.5000 TD -1 8 270
1967223N13347 1967 70 NA NA NOT_NAMED 1967-08-12 09:00:00 TS 13.0000 -21.9275 main 511 511 P_____________ AL081967 13.0000 -21.9275 TD -1 9 270
1967223N13347 1967 70 NA NA NOT_NAMED 1967-08-12 12:00:00 TS 13.0000 -22.4000 hurdat_atl main 562 562 O_____________ hurdat_atl AL081967 13.0000 -22.4000 TD -1 9 270
1967223N13347 1967 70 NA NA NOT_NAMED 1967-08-12 15:00:00 TS 12.9922 -22.8626 main 613 613 P_____________ AL081967 12.9922 -22.8626 TD -1 10 270
1967223N13347 1967 70 NA NA NOT_NAMED 1967-08-12 18:00:00 TS 13.0000 -23.4000 hurdat_atl main 665 665 O_____________ hurdat_atl AL081967 13.0000 -23.4000 TD -1 12 272
1967223N13347 1967 70 NA NA NOT_NAMED 1967-08-12 21:00:00 TS 13.0427 -24.0924 main 737 737 P_____________ AL081967 13.0427 -24.0924 TD -1 14 274
1967223N13347 1967 70 NA NA NOT_NAMED 1967-08-13 00:00:00 TS 13.1000 -24.8000 hurdat_atl main 808 808 O_____________ hurdat_atl AL081967 13.1000 -24.8000 TD -1 13 275
1967223N13347 1967 70 NA NA NOT_NAMED 1967-08-13 03:00:00 TS 13.1423 -25.3876 main 871 871 P_____________ AL081967 13.1423 -25.3876 TD -1 11 275
1967223N13347 1967 70 NA NA NOT_NAMED 1967-08-13 06:00:00 TS 13.2000 -25.9000 hurdat_atl main 922 922 O_____________ hurdat_atl AL081967 13.2000 -25.9000 TD -1 10 279
1967223N13347 1967 70 NA NA NOT_NAMED 1967-08-13 09:00:00 TS 13.2923 -26.3575 main 973 973 P_____________ AL081967 13.2923 -26.3575 TD -1 9 283
1967223N13347 1967 70 NA NA NOT_NAMED 1967-08-13 12:00:00 TS 13.4000 -26.8000 hurdat_atl main 1014 1014 O_____________ hurdat_atl AL081967 13.4000 -26.8000 TD -1 9 283
1967223N13347 1967 70 NA NA NOT_NAMED 1967-08-13 15:00:00 TS 13.4999 -27.2925 main 1065 1065 P_____________ AL081967 13.4999 -27.2925 TD -1 10 282
1967223N13347 1967 70 NA NA NOT_NAMED 1967-08-13 18:00:00 TS 13.6000 -27.8000 hurdat_atl main 1117 1117 O_____________ hurdat_atl AL081967 13.6000 -27.8000 TD -1 10 283
1967223N13347 1967 70 NA NA NOT_NAMED 1967-08-13 21:00:00 TS 13.7148 -28.2850 main 1170 1170 P_____________ AL081967 13.7148 -28.2850 TD -1 10 282
1967223N13347 1967 70 NA NA NOT_NAMED 1967-08-14 00:00:00 TS 13.8000 -28.8000 hurdat_atl main 1222 1222 O_____________ hurdat_atl AL081967 13.8000 -28.8000 TD -1 11 275
1967223N13347 1967 70 NA NA NOT_NAMED 1967-08-14 03:00:00 TS 13.8151 -29.4001 main 1286 1286 P_____________ AL081967 13.8151 -29.4001 TD -1 12 270
1967223N13347 1967 70 NA NA NOT_NAMED 1967-08-14 06:00:00 TS 13.8000 -30.0000 hurdat_atl main 1351 1351 O_____________ hurdat_atl AL081967 13.8000 -30.0000 TD -1 11 269
1967223N13347 1967 70 NA NA NOT_NAMED 1967-08-14 09:00:00 TS 13.7998 -30.5150 main 1405 1405 P_____________ AL081967 13.7998 -30.5150 TD -1 10 270
1967223N13347 1967 70 NA NA NOT_NAMED 1967-08-14 12:00:00 TS 13.8000 -31.0000 hurdat_atl main 1458 1458 O_____________ hurdat_atl AL081967 13.8000 -31.0000 TD -1 10 270
1967223N13347 1967 70 NA NA NOT_NAMED 1967-08-14 15:00:00 TS 13.7924 -31.4926 main 1512 1512 P_____________ AL081967 13.7924 -31.4926 TD -1 10 270
1967223N13347 1967 70 NA NA NOT_NAMED 1967-08-14 18:00:00 TS 13.8000 -32.0000 hurdat_atl main 1566 1566 O_____________ hurdat_atl AL081967 13.8000 -32.0000 TD -1 10 273
1967223N13347 1967 70 NA NA NOT_NAMED 1967-08-14 21:00:00 TS 13.8425 -32.5575 main 1631 1631 P_____________ AL081967 13.8425 -32.5575 TD -1 11 275
1967223N13347 1967 70 NA NA NOT_NAMED 1967-08-15 00:00:00 TS 13.9000 -33.1000 hurdat_atl main 1683 1683 O_____________ hurdat_atl AL081967 13.9000 -33.1000 TD -1 10 277
1967223N13347 1967 70 NA NA NOT_NAMED 1967-08-15 03:00:00 TS 13.9573 -33.5575 main 1736 1736 P_____________ AL081967 13.9573 -33.5575 TD -1 9 277
1967223N13347 1967 70 NA NA NOT_NAMED 1967-08-15 06:00:00 TS 14.0000 -34.0000 hurdat_atl main 1779 1779 O_____________ hurdat_atl AL081967 14.0000 -34.0000 TD -1 9 273
1967223N13347 1967 70 NA NA NOT_NAMED 1967-08-15 09:00:00 TS 14.0074 -34.4925 main 1833 1833 P_____________ AL081967 14.0074 -34.4925 TD -1 10 270
1967223N13347 1967 70 NA NA NOT_NAMED 1967-08-15 12:00:00 TS 14.0000 -35.0000 hurdat_atl main 1887 1887 O_____________ hurdat_atl AL081967 14.0000 -35.0000 TD -1 10 270
1967223N13347 1967 70 NA NA NOT_NAMED 1967-08-15 15:00:00 TS 13.9999 -35.5000 main 1941 1939 P_____________ AL081967 13.9999 -35.5000 TD -1 10 270
1967223N13347 1967 70 NA NA NOT_NAMED 1967-08-15 18:00:00 TS 14.0000 -36.0000 hurdat_atl main 1939 1928 O_____________ hurdat_atl AL081967 14.0000 -36.0000 TD -1 10 270
1967223N13347 1967 70 NA NA NOT_NAMED 1967-08-15 21:00:00 TS 13.9999 -36.5000 main 1928 1908 P_____________ AL081967 13.9999 -36.5000 TD -1 10 270
1967223N13347 1967 70 NA NA NOT_NAMED 1967-08-16 00:00:00 TS 14.0000 -37.0000 hurdat_atl main 1908 1863 O_____________ hurdat_atl AL081967 14.0000 -37.0000 TD -1 10 270
1967223N13347 1967 70 NA NA NOT_NAMED 1967-08-16 03:00:00 TS 13.9999 -37.5000 main 1863 1819 P_____________ AL081967 13.9999 -37.5000 TD -1 10 270
1967223N13347 1967 70 NA NA NOT_NAMED 1967-08-16 06:00:00 TS 14.0000 -38.0000 hurdat_atl main 1819 1775 O_____________ hurdat_atl AL081967 14.0000 -38.0000 TD -1 10 270
1967223N13347 1967 70 NA NA NOT_NAMED 1967-08-16 09:00:00 TS 14.0002 -38.5000 main 1775 1732 P_____________ AL081967 14.0002 -38.5000 TD -1 10 270
1967223N13347 1967 70 NA NA NOT_NAMED 1967-08-16 12:00:00 TS 14.0000 -39.0000 hurdat_atl main 1732 O_____________ hurdat_atl AL081967 14.0000 -39.0000 TD -1 10 270

About IBTrACS Database

This database is a web-friendly format of International Best Track Archive for Climate Stewardship (IBTrACS), a global best track data archive curated by NOAA dating back to 1842.

Updated: 2021-10-08